sensor_id;sensor_type;location;lat;lon;timestamp;temperature;humidity
14079;DHT22;7115;50.150;8.568;2022-07-10T00:01:19;18.90;92.50
14079;DHT22;7115;50.150;8.568;2022-07-10T00:03:46;18.90;92.50
14079;DHT22;7115;50.150;8.568;2022-07-10T00:06:16;18.90;92.50
14079;DHT22;7115;50.150;8.568;2022-07-10T00:08:43;18.90;92.50
14079;DHT22;7115;50.150;8.568;2022-07-10T00:11:10;18.80;92.50
14079;DHT22;7115;50.150;8.568;2022-07-10T00:13:37;18.80;92.50
14079;DHT22;7115;50.150;8.568;2022-07-10T00:16:04;18.80;92.50
14079;DHT22;7115;50.150;8.568;2022-07-10T00:18:31;18.70;92.50
14079;DHT22;7115;50.150;8.568;2022-07-10T00:20:58;18.70;92.50
14079;DHT22;7115;50.150;8.568;2022-07-10T00:23:25;18.60;92.50
14079;DHT22;7115;50.150;8.568;2022-07-10T00:25:51;18.60;92.60
14079;DHT22;7115;50.150;8.568;2022-07-10T00:28:18;18.60;92.60
14079;DHT22;7115;50.150;8.568;2022-07-10T00:30:45;18.50;92.60
14079;DHT22;7115;50.150;8.568;2022-07-10T00:33:12;18.50;92.70
14079;DHT22;7115;50.150;8.568;2022-07-10T00:35:39;18.50;92.70
14079;DHT22;7115;50.150;8.568;2022-07-10T00:38:06;18.50;92.70
14079;DHT22;7115;50.150;8.568;2022-07-10T00:40:32;18.50;92.60
14079;DHT22;7115;50.150;8.568;2022-07-10T00:42:59;18.50;92.60
14079;DHT22;7115;50.150;8.568;2022-07-10T00:45:26;18.40;92.70
14079;DHT22;7115;50.150;8.568;2022-07-10T00:47:53;18.40;92.70
14079;DHT22;7115;50.150;8.568;2022-07-10T00:50:20;18.30;92.70
14079;DHT22;7115;50.150;8.568;2022-07-10T00:52:47;18.20;92.80
14079;DHT22;7115;50.150;8.568;2022-07-10T00:55:13;18.10;93.00
14079;DHT22;7115;50.150;8.568;2022-07-10T00:57:40;18.10;93.20
14079;DHT22;7115;50.150;8.568;2022-07-10T01:00:10;17.90;93.30
14079;DHT22;7115;50.150;8.568;2022-07-10T01:02:43;17.80;93.50
14079;DHT22;7115;50.150;8.568;2022-07-10T01:05:10;17.80;93.70
14079;DHT22;7115;50.150;8.568;2022-07-10T01:07:37;17.80;93.80
14079;DHT22;7115;50.150;8.568;2022-07-10T01:10:04;17.80;93.80
14079;DHT22;7115;50.150;8.568;2022-07-10T01:12:31;17.80;93.90
14079;DHT22;7115;50.150;8.568;2022-07-10T01:14:58;17.90;94.00
14079;DHT22;7115;50.150;8.568;2022-07-10T01:17:25;17.90;94.00
14079;DHT22;7115;50.150;8.568;2022-07-10T01:19:52;18.00;94.00
14079;DHT22;7115;50.150;8.568;2022-07-10T01:22:19;18.00;94.00
14079;DHT22;7115;50.150;8.568;2022-07-10T01:24:46;18.00;93.90
14079;DHT22;7115;50.150;8.568;2022-07-10T01:27:13;18.00;93.90
14079;DHT22;7115;50.150;8.568;2022-07-10T01:29:40;18.00;93.90
14079;DHT22;7115;50.150;8.568;2022-07-10T01:32:07;17.90;93.90
14079;DHT22;7115;50.150;8.568;2022-07-10T01:34:34;17.90;93.80
14079;DHT22;7115;50.150;8.568;2022-07-10T01:37:01;17.90;93.80
14079;DHT22;7115;50.150;8.568;2022-07-10T01:39:28;17.90;93.80
14079;DHT22;7115;50.150;8.568;2022-07-10T01:41:54;17.90;93.80
14079;DHT22;7115;50.150;8.568;2022-07-10T01:44:21;17.90;93.80
14079;DHT22;7115;50.150;8.568;2022-07-10T01:46:48;18.00;93.80
14079;DHT22;7115;50.150;8.568;2022-07-10T01:49:15;18.00;93.80
14079;DHT22;7115;50.150;8.568;2022-07-10T01:51:42;18.00;93.70
14079;DHT22;7115;50.150;8.568;2022-07-10T01:54:10;17.90;93.60
14079;DHT22;7115;50.150;8.568;2022-07-10T01:56:36;17.90;93.60
14079;DHT22;7115;50.150;8.568;2022-07-10T01:59:04;17.90;93.60
14079;DHT22;7115;50.150;8.568;2022-07-10T02:01:31;17.90;93.50
14079;DHT22;7115;50.150;8.568;2022-07-10T02:03:59;17.90;93.40
14079;DHT22;7115;50.150;8.568;2022-07-10T02:06:44;17.90;93.30
14079;DHT22;7115;50.150;8.568;2022-07-10T02:09:11;17.90;93.20
14079;DHT22;7115;50.150;8.568;2022-07-10T02:11:39;17.90;93.20
14079;DHT22;7115;50.150;8.568;2022-07-10T02:14:06;17.90;93.10
14079;DHT22;7115;50.150;8.568;2022-07-10T02:16:34;17.90;93.10
14079;DHT22;7115;50.150;8.568;2022-07-10T02:19:02;17.90;93.10
14079;DHT22;7115;50.150;8.568;2022-07-10T02:21:29;17.80;93.00
14079;DHT22;7115;50.150;8.568;2022-07-10T02:23:56;17.70;93.00
14079;DHT22;7115;50.150;8.568;2022-07-10T02:26:23;17.60;93.00
14079;DHT22;7115;50.150;8.568;2022-07-10T02:28:49;17.50;93.00
14079;DHT22;7115;50.150;8.568;2022-07-10T02:31:16;17.40;93.00
14079;DHT22;7115;50.150;8.568;2022-07-10T02:33:43;17.30;93.20
14079;DHT22;7115;50.150;8.568;2022-07-10T02:36:10;17.20;93.20
14079;DHT22;7115;50.150;8.568;2022-07-10T02:38:37;17.20;93.20
14079;DHT22;7115;50.150;8.568;2022-07-10T02:41:04;17.10;93.20
14079;DHT22;7115;50.150;8.568;2022-07-10T02:43:31;17.10;93.20
14079;DHT22;7115;50.150;8.568;2022-07-10T02:45:58;17.10;93.20
14079;DHT22;7115;50.150;8.568;2022-07-10T02:48:24;17.10;93.20
14079;DHT22;7115;50.150;8.568;2022-07-10T02:50:51;17.00;93.20
14079;DHT22;7115;50.150;8.568;2022-07-10T02:53:19;17.00;93.20
14079;DHT22;7115;50.150;8.568;2022-07-10T02:55:46;17.00;93.20
14079;DHT22;7115;50.150;8.568;2022-07-10T02:58:12;17.00;93.20
14079;DHT22;7115;50.150;8.568;2022-07-10T03:00:41;16.90;93.20
14079;DHT22;7115;50.150;8.568;2022-07-10T03:03:08;16.90;93.20
14079;DHT22;7115;50.150;8.568;2022-07-10T03:05:35;16.90;93.20
14079;DHT22;7115;50.150;8.568;2022-07-10T03:08:01;16.90;93.20
14079;DHT22;7115;50.150;8.568;2022-07-10T03:10:28;16.80;93.20
14079;DHT22;7115;50.150;8.568;2022-07-10T03:12:55;16.70;93.20
14079;DHT22;7115;50.150;8.568;2022-07-10T03:15:22;16.70;93.20
14079;DHT22;7115;50.150;8.568;2022-07-10T03:17:49;16.60;93.10
14079;DHT22;7115;50.150;8.568;2022-07-10T03:20:16;16.60;93.20
14079;DHT22;7115;50.150;8.568;2022-07-10T03:22:43;16.50;93.20
14079;DHT22;7115;50.150;8.568;2022-07-10T03:25:10;16.40;93.20
14079;DHT22;7115;50.150;8.568;2022-07-10T03:27:37;16.40;93.60
14079;DHT22;7115;50.150;8.568;2022-07-10T03:30:04;16.40;93.30
14079;DHT22;7115;50.150;8.568;2022-07-10T03:32:31;16.40;93.20
14079;DHT22;7115;50.150;8.568;2022-07-10T03:34:58;16.40;93.20
14079;DHT22;7115;50.150;8.568;2022-07-10T03:37:25;16.50;93.20
14079;DHT22;7115;50.150;8.568;2022-07-10T03:39:52;16.50;93.10
14079;DHT22;7115;50.150;8.568;2022-07-10T03:42:19;16.50;93.10
14079;DHT22;7115;50.150;8.568;2022-07-10T03:44:46;16.50;93.10
14079;DHT22;7115;50.150;8.568;2022-07-10T03:47:12;16.50;93.00
14079;DHT22;7115;50.150;8.568;2022-07-10T03:49:39;16.50;93.00
14079;DHT22;7115;50.150;8.568;2022-07-10T03:52:07;16.40;93.00
14079;DHT22;7115;50.150;8.568;2022-07-10T03:54:34;16.30;93.00
14079;DHT22;7115;50.150;8.568;2022-07-10T03:57:01;16.20;93.10
14079;DHT22;7115;50.150;8.568;2022-07-10T03:59:47;16.10;93.20
14079;DHT22;7115;50.150;8.568;2022-07-10T04:02:13;15.90;93.20
14079;DHT22;7115;50.150;8.568;2022-07-10T04:04:40;15.90;93.30
14079;DHT22;7115;50.150;8.568;2022-07-10T04:07:07;15.70;93.30
14079;DHT22;7115;50.150;8.568;2022-07-10T04:09:34;15.60;93.40
14079;DHT22;7115;50.150;8.568;2022-07-10T04:12:01;15.50;93.50
14079;DHT22;7115;50.150;8.568;2022-07-10T04:14:27;15.50;93.50
14079;DHT22;7115;50.150;8.568;2022-07-10T04:16:54;15.50;93.60
14079;DHT22;7115;50.150;8.568;2022-07-10T04:19:21;15.50;93.60
14079;DHT22;7115;50.150;8.568;2022-07-10T04:21:50;15.50;93.60
14079;DHT22;7115;50.150;8.568;2022-07-10T04:24:17;15.50;93.60
14079;DHT22;7115;50.150;8.568;2022-07-10T04:26:44;15.50;93.60
14079;DHT22;7115;50.150;8.568;2022-07-10T04:29:11;15.50;93.60
14079;DHT22;7115;50.150;8.568;2022-07-10T04:31:38;15.50;93.60
14079;DHT22;7115;50.150;8.568;2022-07-10T04:34:05;15.50;93.50
14079;DHT22;7115;50.150;8.568;2022-07-10T04:36:32;15.60;93.50
14079;DHT22;7115;50.150;8.568;2022-07-10T04:38:58;15.60;93.50
14079;DHT22;7115;50.150;8.568;2022-07-10T04:41:25;15.60;93.40
14079;DHT22;7115;50.150;8.568;2022-07-10T04:43:52;15.60;93.40
14079;DHT22;7115;50.150;8.568;2022-07-10T04:46:19;15.60;93.40
14079;DHT22;7115;50.150;8.568;2022-07-10T04:48:46;15.70;93.40
14079;DHT22;7115;50.150;8.568;2022-07-10T04:51:12;15.60;93.30
14079;DHT22;7115;50.150;8.568;2022-07-10T04:53:39;15.60;93.30
14079;DHT22;7115;50.150;8.568;2022-07-10T04:56:07;15.70;93.30
14079;DHT22;7115;50.150;8.568;2022-07-10T04:58:33;15.60;93.20
14079;DHT22;7115;50.150;8.568;2022-07-10T05:01:00;15.60;93.20
14079;DHT22;7115;50.150;8.568;2022-07-10T05:03:30;15.70;93.20
14079;DHT22;7115;50.150;8.568;2022-07-10T05:05:57;15.70;93.10
14079;DHT22;7115;50.150;8.568;2022-07-10T05:08:24;15.80;93.00
14079;DHT22;7115;50.150;8.568;2022-07-10T05:10:51;16.00;92.90
14079;DHT22;7115;50.150;8.568;2022-07-10T05:13:17;16.00;92.80
14079;DHT22;7115;50.150;8.568;2022-07-10T05:15:46;16.10;92.60
14079;DHT22;7115;50.150;8.568;2022-07-10T05:18:14;16.20;92.50
14079;DHT22;7115;50.150;8.568;2022-07-10T05:20:41;16.30;92.20
14079;DHT22;7115;50.150;8.568;2022-07-10T05:23:11;16.40;92.00
14079;DHT22;7115;50.150;8.568;2022-07-10T05:25:38;16.50;91.90
14079;DHT22;7115;50.150;8.568;2022-07-10T05:28:05;16.70;91.70
14079;DHT22;7115;50.150;8.568;2022-07-10T05:30:32;16.70;91.40
14079;DHT22;7115;50.150;8.568;2022-07-10T05:32:59;16.80;91.20
14079;DHT22;7115;50.150;8.568;2022-07-10T05:35:26;16.90;91.00
14079;DHT22;7115;50.150;8.568;2022-07-10T05:37:53;17.00;90.80
14079;DHT22;7115;50.150;8.568;2022-07-10T05:40:20;17.10;90.60
14079;DHT22;7115;50.150;8.568;2022-07-10T05:42:47;17.20;90.50
14079;DHT22;7115;50.150;8.568;2022-07-10T05:45:13;17.20;90.20
14079;DHT22;7115;50.150;8.568;2022-07-10T05:47:40;17.20;90.00
14079;DHT22;7115;50.150;8.568;2022-07-10T05:50:07;17.30;89.60
14079;DHT22;7115;50.150;8.568;2022-07-10T05:52:35;17.30;89.10
14079;DHT22;7115;50.150;8.568;2022-07-10T05:55:02;17.30;88.60
14079;DHT22;7115;50.150;8.568;2022-07-10T05:57:30;17.20;88.10
14079;DHT22;7115;50.150;8.568;2022-07-10T05:59:57;17.20;87.80
14079;DHT22;7115;50.150;8.568;2022-07-10T06:02:24;17.10;87.70
14079;DHT22;7115;50.150;8.568;2022-07-10T06:04:51;17.10;87.50
14079;DHT22;7115;50.150;8.568;2022-07-10T06:07:18;17.10;87.40
14079;DHT22;7115;50.150;8.568;2022-07-10T06:09:45;17.10;87.30
14079;DHT22;7115;50.150;8.568;2022-07-10T06:12:12;17.10;87.10
14079;DHT22;7115;50.150;8.568;2022-07-10T06:14:38;17.10;86.90
14079;DHT22;7115;50.150;8.568;2022-07-10T06:17:05;17.20;86.90
14079;DHT22;7115;50.150;8.568;2022-07-10T06:19:32;17.30;86.90
14079;DHT22;7115;50.150;8.568;2022-07-10T06:21:59;17.40;86.80
14079;DHT22;7115;50.150;8.568;2022-07-10T06:24:44;17.50;86.50
14079;DHT22;7115;50.150;8.568;2022-07-10T06:27:11;17.60;86.20
14079;DHT22;7115;50.150;8.568;2022-07-10T06:29:38;17.70;86.00
14079;DHT22;7115;50.150;8.568;2022-07-10T06:32:05;17.80;85.90
14079;DHT22;7115;50.150;8.568;2022-07-10T06:34:32;17.90;86.30
14079;DHT22;7115;50.150;8.568;2022-07-10T06:36:59;18.00;85.00
14079;DHT22;7115;50.150;8.568;2022-07-10T06:39:28;18.10;84.80
14079;DHT22;7115;50.150;8.568;2022-07-10T06:41:58;18.20;84.50
14079;DHT22;7115;50.150;8.568;2022-07-10T06:44:24;18.30;84.00
14079;DHT22;7115;50.150;8.568;2022-07-10T06:46:51;18.40;83.50
14079;DHT22;7115;50.150;8.568;2022-07-10T06:49:37;18.50;83.00
14079;DHT22;7115;50.150;8.568;2022-07-10T06:52:04;18.50;82.50
14079;DHT22;7115;50.150;8.568;2022-07-10T06:54:37;18.50;82.20
14079;DHT22;7115;50.150;8.568;2022-07-10T06:57:04;18.50;82.10
14079;DHT22;7115;50.150;8.568;2022-07-10T06:59:32;18.50;81.80
14079;DHT22;7115;50.150;8.568;2022-07-10T07:01:59;18.40;81.40
14079;DHT22;7115;50.150;8.568;2022-07-10T07:04:26;18.50;81.20
14079;DHT22;7115;50.150;8.568;2022-07-10T07:06:53;18.50;80.90
14079;DHT22;7115;50.150;8.568;2022-07-10T07:09:19;18.60;80.70
14079;DHT22;7115;50.150;8.568;2022-07-10T07:11:46;18.70;80.70
14079;DHT22;7115;50.150;8.568;2022-07-10T07:14:13;18.80;80.60
14079;DHT22;7115;50.150;8.568;2022-07-10T07:16:40;19.00;80.40
14079;DHT22;7115;50.150;8.568;2022-07-10T07:19:12;19.10;79.80
14079;DHT22;7115;50.150;8.568;2022-07-10T07:21:44;19.20;79.20
14079;DHT22;7115;50.150;8.568;2022-07-10T07:24:30;19.30;78.70
14079;DHT22;7115;50.150;8.568;2022-07-10T07:26:57;19.40;78.40
14079;DHT22;7115;50.150;8.568;2022-07-10T07:29:23;19.40;78.00
14079;DHT22;7115;50.150;8.568;2022-07-10T07:31:50;19.50;77.70
14079;DHT22;7115;50.150;8.568;2022-07-10T07:34:17;19.60;77.40
14079;DHT22;7115;50.150;8.568;2022-07-10T07:36:44;19.70;77.10
14079;DHT22;7115;50.150;8.568;2022-07-10T07:39:10;19.60;76.80
14079;DHT22;7115;50.150;8.568;2022-07-10T07:41:37;19.50;76.70
14079;DHT22;7115;50.150;8.568;2022-07-10T07:44:04;19.50;76.90
14079;DHT22;7115;50.150;8.568;2022-07-10T07:46:31;19.60;76.90
14079;DHT22;7115;50.150;8.568;2022-07-10T07:48:58;19.70;77.00
14079;DHT22;7115;50.150;8.568;2022-07-10T07:51:25;19.90;76.90
14079;DHT22;7115;50.150;8.568;2022-07-10T07:53:51;20.00;76.60
14079;DHT22;7115;50.150;8.568;2022-07-10T07:56:18;19.90;76.30
14079;DHT22;7115;50.150;8.568;2022-07-10T07:58:46;19.80;76.20
14079;DHT22;7115;50.150;8.568;2022-07-10T08:01:13;19.80;76.40
14079;DHT22;7115;50.150;8.568;2022-07-10T08:03:40;19.90;76.50
14079;DHT22;7115;50.150;8.568;2022-07-10T08:06:27;19.90;76.30
14079;DHT22;7115;50.150;8.568;2022-07-10T08:08:53;20.00;76.30
14079;DHT22;7115;50.150;8.568;2022-07-10T08:11:20;20.10;76.00
14079;DHT22;7115;50.150;8.568;2022-07-10T08:13:47;20.10;75.60
14079;DHT22;7115;50.150;8.568;2022-07-10T08:16:14;20.10;75.40
14079;DHT22;7115;50.150;8.568;2022-07-10T08:18:41;20.10;75.70
14079;DHT22;7115;50.150;8.568;2022-07-10T08:21:09;20.20;75.70
14079;DHT22;7115;50.150;8.568;2022-07-10T08:23:36;20.30;75.50
14079;DHT22;7115;50.150;8.568;2022-07-10T08:26:02;20.40;75.10
14079;DHT22;7115;50.150;8.568;2022-07-10T08:28:29;20.50;74.70
14079;DHT22;7115;50.150;8.568;2022-07-10T08:30:56;20.60;74.30
14079;DHT22;7115;50.150;8.568;2022-07-10T08:33:23;20.60;74.20
14079;DHT22;7115;50.150;8.568;2022-07-10T08:35:51;20.60;73.90
14079;DHT22;7115;50.150;8.568;2022-07-10T08:38:18;20.70;73.80
14079;DHT22;7115;50.150;8.568;2022-07-10T08:40:45;20.80;73.70
14079;DHT22;7115;50.150;8.568;2022-07-10T08:43:12;20.90;73.50
14079;DHT22;7115;50.150;8.568;2022-07-10T08:45:40;21.00;73.30
14079;DHT22;7115;50.150;8.568;2022-07-10T08:48:07;21.10;73.00
14079;DHT22;7115;50.150;8.568;2022-07-10T08:50:38;21.10;72.90
14079;DHT22;7115;50.150;8.568;2022-07-10T08:55:37;21.00;72.70
14079;DHT22;7115;50.150;8.568;2022-07-10T08:58:04;20.90;72.80
14079;DHT22;7115;50.150;8.568;2022-07-10T09:00:32;21.00;72.90
14079;DHT22;7115;50.150;8.568;2022-07-10T09:02:59;21.20;72.90
14079;DHT22;7115;50.150;8.568;2022-07-10T09:05:26;21.20;72.50
14079;DHT22;7115;50.150;8.568;2022-07-10T09:07:54;21.20;72.40
14079;DHT22;7115;50.150;8.568;2022-07-10T09:10:24;21.30;72.60
14079;DHT22;7115;50.150;8.568;2022-07-10T09:12:56;21.50;72.70
14079;DHT22;7115;50.150;8.568;2022-07-10T09:15:25;21.80;72.40
14079;DHT22;7115;50.150;8.568;2022-07-10T09:17:57;22.00;72.00
14079;DHT22;7115;50.150;8.568;2022-07-10T09:20:35;21.90;71.90
14079;DHT22;7115;50.150;8.568;2022-07-10T09:23:19;21.80;72.00
14079;DHT22;7115;50.150;8.568;2022-07-10T09:25:47;21.50;72.30
14079;DHT22;7115;50.150;8.568;2022-07-10T09:28:17;21.30;72.80
14079;DHT22;7115;50.150;8.568;2022-07-10T09:30:45;21.10;73.10
14079;DHT22;7115;50.150;8.568;2022-07-10T09:41:25;21.20;74.00
14079;DHT22;7115;50.150;8.568;2022-07-10T09:44:03;21.40;73.60
14079;DHT22;7115;50.150;8.568;2022-07-10T09:46:34;21.60;72.90
14079;DHT22;7115;50.150;8.568;2022-07-10T09:49:12;21.80;72.50
14079;DHT22;7115;50.150;8.568;2022-07-10T09:51:41;21.90;71.80
14079;DHT22;7115;50.150;8.568;2022-07-10T09:54:14;22.00;71.60
14079;DHT22;7115;50.150;8.568;2022-07-10T09:56:49;22.20;71.30
14079;DHT22;7115;50.150;8.568;2022-07-10T09:59:20;22.30;70.40
14079;DHT22;7115;50.150;8.568;2022-07-10T10:01:47;22.20;69.80
14079;DHT22;7115;50.150;8.568;2022-07-10T10:04:17;22.10;69.60
14079;DHT22;7115;50.150;8.568;2022-07-10T10:06:53;22.20;69.60
14079;DHT22;7115;50.150;8.568;2022-07-10T10:09:41;22.40;69.50
14079;DHT22;7115;50.150;8.568;2022-07-10T10:12:20;22.50;68.80
14079;DHT22;7115;50.150;8.568;2022-07-10T10:14:48;22.50;68.30
14079;DHT22;7115;50.150;8.568;2022-07-10T10:17:17;22.60;68.30
14079;DHT22;7115;50.150;8.568;2022-07-10T10:19:45;22.40;68.40
14079;DHT22;7115;50.150;8.568;2022-07-10T10:22:33;22.20;68.80
14079;DHT22;7115;50.150;8.568;2022-07-10T10:25:01;21.90;69.40
14079;DHT22;7115;50.150;8.568;2022-07-10T10:27:28;21.70;69.90
14079;DHT22;7115;50.150;8.568;2022-07-10T10:29:55;21.50;70.20
14079;DHT22;7115;50.150;8.568;2022-07-10T10:32:22;21.30;70.50
14079;DHT22;7115;50.150;8.568;2022-07-10T10:34:50;21.20;70.70
14079;DHT22;7115;50.150;8.568;2022-07-10T10:37:38;21.10;70.80
14079;DHT22;7115;50.150;8.568;2022-07-10T10:40:08;21.10;70.80
14079;DHT22;7115;50.150;8.568;2022-07-10T10:42:41;21.20;71.00
14079;DHT22;7115;50.150;8.568;2022-07-10T10:48:07;21.70;70.80
14079;DHT22;7115;50.150;8.568;2022-07-10T10:50:56;22.00;70.60
14079;DHT22;7115;50.150;8.568;2022-07-10T10:53:27;22.30;70.20
14079;DHT22;7115;50.150;8.568;2022-07-10T10:58:46;22.60;69.30
14079;DHT22;7115;50.150;8.568;2022-07-10T11:14:26;23.20;67.70
14079;DHT22;7115;50.150;8.568;2022-07-10T11:16:55;23.30;67.40
14079;DHT22;7115;50.150;8.568;2022-07-10T11:19:24;23.50;67.40
14079;DHT22;7115;50.150;8.568;2022-07-10T11:30:28;23.60;66.10
14079;DHT22;7115;50.150;8.568;2022-07-10T11:32:54;23.60;66.30
14079;DHT22;7115;50.150;8.568;2022-07-10T11:35:22;23.60;66.20
14079;DHT22;7115;50.150;8.568;2022-07-10T11:37:52;23.70;66.00
14079;DHT22;7115;50.150;8.568;2022-07-10T11:40:19;23.60;65.50
14079;DHT22;7115;50.150;8.568;2022-07-10T11:42:54;23.50;65.40
14079;DHT22;7115;50.150;8.568;2022-07-10T11:45:31;23.50;65.40
14079;DHT22;7115;50.150;8.568;2022-07-10T11:47:59;23.40;65.60
14079;DHT22;7115;50.150;8.568;2022-07-10T11:50:27;23.40;65.70
14079;DHT22;7115;50.150;8.568;2022-07-10T11:53:00;23.20;65.70
14079;DHT22;7115;50.150;8.568;2022-07-10T11:55:27;23.10;65.80
14079;DHT22;7115;50.150;8.568;2022-07-10T11:57:55;23.10;65.90
14079;DHT22;7115;50.150;8.568;2022-07-10T12:00:27;23.20;65.70
14079;DHT22;7115;50.150;8.568;2022-07-10T12:02:55;23.50;65.50
14079;DHT22;7115;50.150;8.568;2022-07-10T12:05:52;23.60;64.90
14079;DHT22;7115;50.150;8.568;2022-07-10T12:08:18;23.80;64.30
14079;DHT22;7115;50.150;8.568;2022-07-10T12:10:45;24.00;64.40
14079;DHT22;7115;50.150;8.568;2022-07-10T12:13:13;24.10;64.00
14079;DHT22;7115;50.150;8.568;2022-07-10T12:15:45;24.20;63.80
14079;DHT22;7115;50.150;8.568;2022-07-10T12:18:19;24.20;63.80
14079;DHT22;7115;50.150;8.568;2022-07-10T12:20:49;24.30;63.90
14079;DHT22;7115;50.150;8.568;2022-07-10T12:23:20;24.30;63.90
14079;DHT22;7115;50.150;8.568;2022-07-10T12:25:48;24.30;63.90
14079;DHT22;7115;50.150;8.568;2022-07-10T12:28:18;24.20;63.90
14079;DHT22;7115;50.150;8.568;2022-07-10T12:30:49;24.20;63.90
14079;DHT22;7115;50.150;8.568;2022-07-10T12:33:19;24.10;64.00
14079;DHT22;7115;50.150;8.568;2022-07-10T12:35:57;24.10;63.80
14079;DHT22;7115;50.150;8.568;2022-07-10T12:38:26;24.10;63.60
14079;DHT22;7115;50.150;8.568;2022-07-10T12:41:10;23.90;63.50
14079;DHT22;7115;50.150;8.568;2022-07-10T12:43:39;23.80;63.60
14079;DHT22;7115;50.150;8.568;2022-07-10T12:48:44;23.80;64.20
14079;DHT22;7115;50.150;8.568;2022-07-10T12:51:26;24.00;64.30
14079;DHT22;7115;50.150;8.568;2022-07-10T12:54:34;24.00;64.00
14079;DHT22;7115;50.150;8.568;2022-07-10T12:57:03;24.00;64.00
14079;DHT22;7115;50.150;8.568;2022-07-10T12:59:36;24.10;64.00
14079;DHT22;7115;50.150;8.568;2022-07-10T13:02:21;24.20;63.90
14079;DHT22;7115;50.150;8.568;2022-07-10T13:04:53;24.20;63.40
14079;DHT22;7115;50.150;8.568;2022-07-10T13:07:28;24.20;63.40
14079;DHT22;7115;50.150;8.568;2022-07-10T13:09:55;24.30;63.30
14079;DHT22;7115;50.150;8.568;2022-07-10T13:12:29;24.30;63.30
14079;DHT22;7115;50.150;8.568;2022-07-10T13:14:56;24.40;63.20
14079;DHT22;7115;50.150;8.568;2022-07-10T13:17:22;24.50;63.60
14079;DHT22;7115;50.150;8.568;2022-07-10T13:19:50;24.50;62.60
14079;DHT22;7115;50.150;8.568;2022-07-10T13:22:18;24.50;62.50
14079;DHT22;7115;50.150;8.568;2022-07-10T13:24:44;24.50;62.60
14079;DHT22;7115;50.150;8.568;2022-07-10T13:27:11;24.50;62.90
14079;DHT22;7115;50.150;8.568;2022-07-10T13:29:38;24.40;63.00
14079;DHT22;7115;50.150;8.568;2022-07-10T13:32:05;24.40;63.20
14079;DHT22;7115;50.150;8.568;2022-07-10T13:34:32;24.40;63.30
14079;DHT22;7115;50.150;8.568;2022-07-10T13:37:00;24.40;63.30
14079;DHT22;7115;50.150;8.568;2022-07-10T13:39:27;24.30;63.10
14079;DHT22;7115;50.150;8.568;2022-07-10T13:41:54;24.20;63.30
14079;DHT22;7115;50.150;8.568;2022-07-10T13:44:21;24.10;63.40
14079;DHT22;7115;50.150;8.568;2022-07-10T13:46:48;24.20;63.70
14079;DHT22;7115;50.150;8.568;2022-07-10T13:49:15;24.20;63.90
14079;DHT22;7115;50.150;8.568;2022-07-10T13:51:41;24.20;64.90
14079;DHT22;7115;50.150;8.568;2022-07-10T13:54:08;24.10;64.30
14079;DHT22;7115;50.150;8.568;2022-07-10T13:56:35;23.90;64.40
14079;DHT22;7115;50.150;8.568;2022-07-10T13:59:02;23.80;64.80
14079;DHT22;7115;50.150;8.568;2022-07-10T14:01:29;23.70;65.00
14079;DHT22;7115;50.150;8.568;2022-07-10T14:03:56;23.50;65.10
14079;DHT22;7115;50.150;8.568;2022-07-10T14:06:23;23.50;65.50
14079;DHT22;7115;50.150;8.568;2022-07-10T14:08:50;23.50;65.80
14079;DHT22;7115;50.150;8.568;2022-07-10T14:11:16;23.50;66.10
14079;DHT22;7115;50.150;8.568;2022-07-10T14:13:44;23.60;66.30
14079;DHT22;7115;50.150;8.568;2022-07-10T14:16:11;23.50;66.40
14079;DHT22;7115;50.150;8.568;2022-07-10T14:18:38;23.50;66.40
14079;DHT22;7115;50.150;8.568;2022-07-10T14:21:07;23.40;66.50
14079;DHT22;7115;50.150;8.568;2022-07-10T14:23:39;23.20;66.80
14079;DHT22;7115;50.150;8.568;2022-07-10T14:26:08;23.20;67.20
14079;DHT22;7115;50.150;8.568;2022-07-10T14:28:35;23.20;67.50
14079;DHT22;7115;50.150;8.568;2022-07-10T14:31:04;23.30;67.70
14079;DHT22;7115;50.150;8.568;2022-07-10T14:33:32;23.40;67.80
14079;DHT22;7115;50.150;8.568;2022-07-10T14:35:59;23.40;67.60
14079;DHT22;7115;50.150;8.568;2022-07-10T14:38:26;23.40;67.60
14079;DHT22;7115;50.150;8.568;2022-07-10T14:40:54;23.20;68.50
14079;DHT22;7115;50.150;8.568;2022-07-10T14:43:22;23.10;67.90
14079;DHT22;7115;50.150;8.568;2022-07-10T14:45:49;23.00;68.20
14079;DHT22;7115;50.150;8.568;2022-07-10T14:48:25;23.00;68.50
14079;DHT22;7115;50.150;8.568;2022-07-10T14:50:52;22.90;68.70
14079;DHT22;7115;50.150;8.568;2022-07-10T14:53:19;23.00;69.10
14079;DHT22;7115;50.150;8.568;2022-07-10T14:55:46;22.90;69.20
14079;DHT22;7115;50.150;8.568;2022-07-10T14:58:14;22.80;69.40
14079;DHT22;7115;50.150;8.568;2022-07-10T15:00:41;22.80;69.60
14079;DHT22;7115;50.150;8.568;2022-07-10T15:03:07;22.70;69.90
14079;DHT22;7115;50.150;8.568;2022-07-10T15:05:34;22.80;70.30
14079;DHT22;7115;50.150;8.568;2022-07-10T15:08:01;22.90;70.50
14079;DHT22;7115;50.150;8.568;2022-07-10T15:10:30;22.80;70.60
14079;DHT22;7115;50.150;8.568;2022-07-10T15:12:59;22.80;70.70
14079;DHT22;7115;50.150;8.568;2022-07-10T15:15:26;22.80;71.00
14079;DHT22;7115;50.150;8.568;2022-07-10T15:17:53;22.90;71.20
14079;DHT22;7115;50.150;8.568;2022-07-10T15:20:20;22.90;71.30
14079;DHT22;7115;50.150;8.568;2022-07-10T15:22:47;23.00;71.30
14079;DHT22;7115;50.150;8.568;2022-07-10T15:25:14;23.00;71.20
14079;DHT22;7115;50.150;8.568;2022-07-10T15:27:41;23.20;71.40
14079;DHT22;7115;50.150;8.568;2022-07-10T15:30:09;23.30;72.10
14079;DHT22;7115;50.150;8.568;2022-07-10T15:32:38;23.40;71.30
14079;DHT22;7115;50.150;8.568;2022-07-10T15:35:06;23.50;71.30
14079;DHT22;7115;50.150;8.568;2022-07-10T15:37:33;23.60;71.30
14079;DHT22;7115;50.150;8.568;2022-07-10T15:40:00;23.70;71.20
14079;DHT22;7115;50.150;8.568;2022-07-10T15:42:27;23.70;71.10
14079;DHT22;7115;50.150;8.568;2022-07-10T15:44:53;23.60;71.20
14079;DHT22;7115;50.150;8.568;2022-07-10T15:47:20;23.50;71.30
14079;DHT22;7115;50.150;8.568;2022-07-10T15:49:47;23.40;71.50
14079;DHT22;7115;50.150;8.568;2022-07-10T15:52:14;23.40;71.70
14079;DHT22;7115;50.150;8.568;2022-07-10T15:54:41;23.20;71.80
14079;DHT22;7115;50.150;8.568;2022-07-10T15:57:08;23.10;72.00
14079;DHT22;7115;50.150;8.568;2022-07-10T15:59:35;22.90;72.30
14079;DHT22;7115;50.150;8.568;2022-07-10T16:02:02;22.80;72.70
14079;DHT22;7115;50.150;8.568;2022-07-10T16:04:29;22.80;72.90
14079;DHT22;7115;50.150;8.568;2022-07-10T16:06:56;22.70;73.20
14079;DHT22;7115;50.150;8.568;2022-07-10T16:09:23;22.60;74.10
14079;DHT22;7115;50.150;8.568;2022-07-10T16:11:50;22.60;73.60
14079;DHT22;7115;50.150;8.568;2022-07-10T16:14:17;22.50;73.90
14079;DHT22;7115;50.150;8.568;2022-07-10T16:16:45;22.50;74.10
14079;DHT22;7115;50.150;8.568;2022-07-10T16:19:13;22.50;74.20
14079;DHT22;7115;50.150;8.568;2022-07-10T16:21:40;22.60;74.50
14079;DHT22;7115;50.150;8.568;2022-07-10T16:24:07;22.50;74.60
14079;DHT22;7115;50.150;8.568;2022-07-10T16:26:34;22.50;74.90
14079;DHT22;7115;50.150;8.568;2022-07-10T16:29:03;22.50;75.20
14079;DHT22;7115;50.150;8.568;2022-07-10T16:31:31;22.40;75.20
14079;DHT22;7115;50.150;8.568;2022-07-10T16:34:00;22.40;75.40